Asia, Texas
Current Conditions -  °F | °C
As of 1:53 PM on Thursday 27 Nov 2014 (Local Time) from KLFK Reporting Station
Clear Clear  
Wind Chill: 65°   Ceiling: Unl
Heat Index: 65°   Visibility: 10mi
Dew Point: 25°   Wind: 5mph
Humidity: 22%   Direction: NA
Pressure: 30.43"   Gusts: NA
Location:  31.024°N, 94.7686°W
Report Text: KLFK 271953Z AUTO VRB04KT 10SM CLR 18/M04 A3043 RMK AO2 SLP304 T01831039 $
Loading
Personal Weather Stations






























Interactive Weather Map New forecast layout! Learn more

10-Day Weather Forecast

Advertisements
Track Severe Weather on mobile